KTXK/TXK METAR and TAF weather

Enter ICAO airport designator
Station Type Date Time Source
KTXK METAR 2019/06/27 03:53 UTC NOAA

KTXK 270353Z AUTO 20003KT 10SM CLR 25/18 A3015 RMK AO2 SLP205 T02500183


Station Type Date Time Source
KTXK Decoded METAR 2019/06/27 03:53 UTC NOAA

TEXARKANA RGNL WEBB FIELD, AR, United States (KTXK) 33-27N 093-59W 111M
Jun 26, 2019 - 11:53 PM EDT / 2019.06.27 0353 UTC
Wind: from the SSW (200 degrees) at 3 MPH (3 KT):0
Visibility: 10 mile(s):0
Sky conditions: clear
Temperature: 77.0 F (25.0 C)
Dew Point: 64.9 F (18.3 C)
Relative Humidity: 66%
Pressure (altimeter): 30.15 in. Hg (1020 hPa)
ob: KTXK 270353Z AUTO 20003KT 10SM CLR 25/18 A3015 RMK AO2 SLP205 T02500183
cycle: 4

Station Type Date Time Source
KTXK TAF 2019/06/26 18:45 UTC NOAA

TAF KTXK 261742Z 2618/2718 18008KT P6SM SKC
FM262300 VRB04KT P6SM BKN250
FM271600 21005KT P6SM SCT040

Example: see airport list